sensor_id;sensor_type;location;lat;lon;timestamp;P1;durP1;ratioP1;P2;durP2;ratioP2
2930;SDS011;1475;51.454;7.150;2022-07-09T00:00:32;6.55;;;5.07;;
2930;SDS011;1475;51.454;7.150;2022-07-09T00:02:59;8.38;;;5.50;;
2930;SDS011;1475;51.454;7.150;2022-07-09T00:05:26;8.07;;;5.80;;
2930;SDS011;1475;51.454;7.150;2022-07-09T00:07:53;7.05;;;5.03;;
2930;SDS011;1475;51.454;7.150;2022-07-09T00:10:19;7.65;;;5.50;;
2930;SDS011;1475;51.454;7.150;2022-07-09T00:12:46;8.45;;;5.50;;
2930;SDS011;1475;51.454;7.150;2022-07-09T00:15:13;6.10;;;5.17;;
2930;SDS011;1475;51.454;7.150;2022-07-09T00:17:41;7.45;;;5.57;;
2930;SDS011;1475;51.454;7.150;2022-07-09T00:20:09;6.45;;;5.25;;
2930;SDS011;1475;51.454;7.150;2022-07-09T00:22:36;8.00;;;5.80;;
2930;SDS011;1475;51.454;7.150;2022-07-09T00:25:03;10.30;;;6.45;;
2930;SDS011;1475;51.454;7.150;2022-07-09T00:27:31;8.48;;;6.00;;
2930;SDS011;1475;51.454;7.150;2022-07-09T00:29:58;10.18;;;6.15;;
2930;SDS011;1475;51.454;7.150;2022-07-09T00:32:24;7.78;;;6.07;;
2930;SDS011;1475;51.454;7.150;2022-07-09T00:34:53;7.30;;;6.53;;
2930;SDS011;1475;51.454;7.150;2022-07-09T00:37:19;9.02;;;6.90;;
2930;SDS011;1475;51.454;7.150;2022-07-09T00:39:46;7.85;;;6.10;;
2930;SDS011;1475;51.454;7.150;2022-07-09T00:42:13;7.30;;;6.10;;
2930;SDS011;1475;51.454;7.150;2022-07-09T00:44:40;7.88;;;7.00;;
2930;SDS011;1475;51.454;7.150;2022-07-09T00:47:07;10.48;;;7.28;;
2930;SDS011;1475;51.454;7.150;2022-07-09T00:49:35;7.20;;;6.38;;
2930;SDS011;1475;51.454;7.150;2022-07-09T00:52:07;11.60;;;7.60;;
2930;SDS011;1475;51.454;7.150;2022-07-09T00:54:35;9.80;;;6.40;;
2930;SDS011;1475;51.454;7.150;2022-07-09T00:57:05;8.18;;;7.35;;
2930;SDS011;1475;51.454;7.150;2022-07-09T00:59:33;7.65;;;6.40;;
2930;SDS011;1475;51.454;7.150;2022-07-09T01:02:01;7.22;;;6.47;;
2930;SDS011;1475;51.454;7.150;2022-07-09T01:04:28;8.50;;;7.00;;
2930;SDS011;1475;51.454;7.150;2022-07-09T01:06:55;8.43;;;7.30;;
2930;SDS011;1475;51.454;7.150;2022-07-09T01:09:25;8.45;;;7.65;;
2930;SDS011;1475;51.454;7.150;2022-07-09T01:11:53;9.40;;;8.18;;
2930;SDS011;1475;51.454;7.150;2022-07-09T01:14:20;9.90;;;7.72;;
2930;SDS011;1475;51.454;7.150;2022-07-09T01:16:56;9.32;;;7.40;;
2930;SDS011;1475;51.454;7.150;2022-07-09T01:19:24;10.48;;;7.90;;
2930;SDS011;1475;51.454;7.150;2022-07-09T01:21:53;9.40;;;7.68;;
2930;SDS011;1475;51.454;7.150;2022-07-09T01:24:20;8.73;;;7.68;;
2930;SDS011;1475;51.454;7.150;2022-07-09T01:26:48;9.27;;;7.30;;
2930;SDS011;1475;51.454;7.150;2022-07-09T01:29:15;9.53;;;8.27;;
2930;SDS011;1475;51.454;7.150;2022-07-09T01:31:42;10.82;;;8.07;;
2930;SDS011;1475;51.454;7.150;2022-07-09T01:34:08;13.07;;;9.02;;
2930;SDS011;1475;51.454;7.150;2022-07-09T01:36:35;9.07;;;8.18;;
2930;SDS011;1475;51.454;7.150;2022-07-09T01:39:04;8.70;;;7.90;;
2930;SDS011;1475;51.454;7.150;2022-07-09T01:41:30;10.75;;;8.07;;
2930;SDS011;1475;51.454;7.150;2022-07-09T01:43:57;12.35;;;9.05;;
2930;SDS011;1475;51.454;7.150;2022-07-09T01:46:24;9.73;;;8.20;;
2930;SDS011;1475;51.454;7.150;2022-07-09T01:48:51;9.07;;;8.15;;
2930;SDS011;1475;51.454;7.150;2022-07-09T01:51:18;8.73;;;7.90;;
2930;SDS011;1475;51.454;7.150;2022-07-09T01:53:46;11.05;;;8.95;;
2930;SDS011;1475;51.454;7.150;2022-07-09T01:56:15;9.53;;;8.60;;
2930;SDS011;1475;51.454;7.150;2022-07-09T01:58:42;9.50;;;8.57;;
2930;SDS011;1475;51.454;7.150;2022-07-09T02:01:10;10.00;;;8.95;;
2930;SDS011;1475;51.454;7.150;2022-07-09T02:03:37;11.02;;;8.70;;
2930;SDS011;1475;51.454;7.150;2022-07-09T02:06:04;10.88;;;9.50;;
2930;SDS011;1475;51.454;7.150;2022-07-09T02:08:31;13.75;;;9.55;;
2930;SDS011;1475;51.454;7.150;2022-07-09T02:10:58;11.88;;;9.15;;
2930;SDS011;1475;51.454;7.150;2022-07-09T02:13:26;9.43;;;8.43;;
2930;SDS011;1475;51.454;7.150;2022-07-09T02:15:53;10.20;;;9.30;;
2930;SDS011;1475;51.454;7.150;2022-07-09T02:18:20;11.20;;;9.20;;
2930;SDS011;1475;51.454;7.150;2022-07-09T02:20:46;8.68;;;7.78;;
2930;SDS011;1475;51.454;7.150;2022-07-09T02:23:13;9.38;;;7.95;;
2930;SDS011;1475;51.454;7.150;2022-07-09T02:25:40;8.90;;;8.00;;
2930;SDS011;1475;51.454;7.150;2022-07-09T02:28:07;9.48;;;8.48;;
2930;SDS011;1475;51.454;7.150;2022-07-09T02:30:35;10.77;;;8.30;;
2930;SDS011;1475;51.454;7.150;2022-07-09T02:33:02;12.98;;;8.90;;
2930;SDS011;1475;51.454;7.150;2022-07-09T02:35:29;10.45;;;8.88;;
2930;SDS011;1475;51.454;7.150;2022-07-09T02:37:56;10.90;;;8.30;;
2930;SDS011;1475;51.454;7.150;2022-07-09T02:40:23;8.88;;;7.90;;
2930;SDS011;1475;51.454;7.150;2022-07-09T02:42:50;10.30;;;7.97;;
2930;SDS011;1475;51.454;7.150;2022-07-09T02:45:17;10.40;;;8.32;;
2930;SDS011;1475;51.454;7.150;2022-07-09T02:47:45;9.13;;;7.60;;
2930;SDS011;1475;51.454;7.150;2022-07-09T02:50:12;10.10;;;7.70;;
2930;SDS011;1475;51.454;7.150;2022-07-09T02:52:39;11.90;;;8.20;;
2930;SDS011;1475;51.454;7.150;2022-07-09T02:55:06;9.18;;;7.85;;
2930;SDS011;1475;51.454;7.150;2022-07-09T02:57:33;9.13;;;8.18;;
2930;SDS011;1475;51.454;7.150;2022-07-09T03:00:00;9.07;;;8.18;;
2930;SDS011;1475;51.454;7.150;2022-07-09T03:02:26;11.65;;;9.00;;
2930;SDS011;1475;51.454;7.150;2022-07-09T03:04:55;10.77;;;8.80;;
2930;SDS011;1475;51.454;7.150;2022-07-09T03:07:22;13.07;;;9.80;;
2930;SDS011;1475;51.454;7.150;2022-07-09T03:09:49;11.25;;;8.90;;
2930;SDS011;1475;51.454;7.150;2022-07-09T03:12:16;10.40;;;9.30;;
2930;SDS011;1475;51.454;7.150;2022-07-09T03:14:43;11.25;;;8.98;;
2930;SDS011;1475;51.454;7.150;2022-07-09T03:17:10;11.40;;;10.20;;
2930;SDS011;1475;51.454;7.150;2022-07-09T03:19:37;10.45;;;9.30;;
2930;SDS011;1475;51.454;7.150;2022-07-09T03:22:05;11.55;;;9.35;;
2930;SDS011;1475;51.454;7.150;2022-07-09T03:24:32;10.55;;;9.00;;
2930;SDS011;1475;51.454;7.150;2022-07-09T03:26:59;9.85;;;8.70;;
2930;SDS011;1475;51.454;7.150;2022-07-09T03:29:26;10.93;;;8.65;;
2930;SDS011;1475;51.454;7.150;2022-07-09T03:31:53;10.23;;;9.10;;
2930;SDS011;1475;51.454;7.150;2022-07-09T03:34:19;9.90;;;8.77;;
2930;SDS011;1475;51.454;7.150;2022-07-09T03:36:47;10.73;;;9.10;;
2930;SDS011;1475;51.454;7.150;2022-07-09T03:39:16;10.30;;;8.60;;
2930;SDS011;1475;51.454;7.150;2022-07-09T03:41:42;9.88;;;8.20;;
2930;SDS011;1475;51.454;7.150;2022-07-09T03:44:09;8.60;;;7.47;;
2930;SDS011;1475;51.454;7.150;2022-07-09T03:46:36;9.27;;;7.85;;
2930;SDS011;1475;51.454;7.150;2022-07-09T03:49:03;11.07;;;7.72;;
2930;SDS011;1475;51.454;7.150;2022-07-09T03:51:30;10.65;;;8.18;;
2930;SDS011;1475;51.454;7.150;2022-07-09T03:53:57;10.15;;;7.68;;
2930;SDS011;1475;51.454;7.150;2022-07-09T03:56:25;9.05;;;7.72;;
2930;SDS011;1475;51.454;7.150;2022-07-09T03:58:52;7.85;;;7.05;;
2930;SDS011;1475;51.454;7.150;2022-07-09T04:01:19;8.43;;;7.63;;
2930;SDS011;1475;51.454;7.150;2022-07-09T04:03:45;8.77;;;7.97;;
2930;SDS011;1475;51.454;7.150;2022-07-09T04:06:12;13.35;;;8.30;;
2930;SDS011;1475;51.454;7.150;2022-07-09T04:08:39;10.18;;;7.70;;
2930;SDS011;1475;51.454;7.150;2022-07-09T04:11:06;11.45;;;8.23;;
2930;SDS011;1475;51.454;7.150;2022-07-09T04:13:34;10.13;;;6.97;;
2930;SDS011;1475;51.454;7.150;2022-07-09T04:16:01;8.40;;;7.47;;
2930;SDS011;1475;51.454;7.150;2022-07-09T04:18:28;8.57;;;7.78;;
2930;SDS011;1475;51.454;7.150;2022-07-09T04:20:55;10.90;;;8.20;;
2930;SDS011;1475;51.454;7.150;2022-07-09T04:23:22;11.20;;;9.18;;
2930;SDS011;1475;51.454;7.150;2022-07-09T04:25:49;10.98;;;8.82;;
2930;SDS011;1475;51.454;7.150;2022-07-09T04:28:16;10.82;;;9.15;;
2930;SDS011;1475;51.454;7.150;2022-07-09T04:30:45;11.03;;;8.80;;
2930;SDS011;1475;51.454;7.150;2022-07-09T04:33:12;12.80;;;10.35;;
2930;SDS011;1475;51.454;7.150;2022-07-09T04:35:39;10.60;;;9.50;;
2930;SDS011;1475;51.454;7.150;2022-07-09T04:38:06;11.00;;;7.90;;
2930;SDS011;1475;51.454;7.150;2022-07-09T04:40:33;10.20;;;9.20;;
2930;SDS011;1475;51.454;7.150;2022-07-09T04:43:00;10.85;;;9.07;;
2930;SDS011;1475;51.454;7.150;2022-07-09T04:45:26;12.02;;;9.07;;
2930;SDS011;1475;51.454;7.150;2022-07-09T04:47:57;9.90;;;8.67;;
2930;SDS011;1475;51.454;7.150;2022-07-09T04:50:24;10.00;;;8.35;;
2930;SDS011;1475;51.454;7.150;2022-07-09T04:52:52;11.30;;;8.40;;
2930;SDS011;1475;51.454;7.150;2022-07-09T04:55:19;10.40;;;8.80;;
2930;SDS011;1475;51.454;7.150;2022-07-09T04:57:46;10.25;;;9.25;;
2930;SDS011;1475;51.454;7.150;2022-07-09T05:00:13;11.40;;;9.20;;
2930;SDS011;1475;51.454;7.150;2022-07-09T05:02:41;12.40;;;9.20;;
2930;SDS011;1475;51.454;7.150;2022-07-09T05:05:10;12.17;;;9.57;;
2930;SDS011;1475;51.454;7.150;2022-07-09T05:07:38;11.52;;;9.73;;
2930;SDS011;1475;51.454;7.150;2022-07-09T05:10:07;10.60;;;9.30;;
2930;SDS011;1475;51.454;7.150;2022-07-09T05:12:34;11.63;;;8.95;;
2930;SDS011;1475;51.454;7.150;2022-07-09T05:15:02;9.75;;;8.75;;
2930;SDS011;1475;51.454;7.150;2022-07-09T05:17:33;9.82;;;8.80;;
2930;SDS011;1475;51.454;7.150;2022-07-09T05:20:01;11.80;;;9.50;;
2930;SDS011;1475;51.454;7.150;2022-07-09T05:22:31;10.02;;;9.02;;
2930;SDS011;1475;51.454;7.150;2022-07-09T05:24:58;8.98;;;7.68;;
2930;SDS011;1475;51.454;7.150;2022-07-09T05:27:25;9.18;;;8.00;;
2930;SDS011;1475;51.454;7.150;2022-07-09T05:29:52;9.32;;;7.10;;
2930;SDS011;1475;51.454;7.150;2022-07-09T05:32:18;8.80;;;7.57;;
2930;SDS011;1475;51.454;7.150;2022-07-09T05:34:45;8.27;;;6.70;;
2930;SDS011;1475;51.454;7.150;2022-07-09T05:37:12;7.40;;;6.10;;
2930;SDS011;1475;51.454;7.150;2022-07-09T05:39:41;8.90;;;5.72;;
2930;SDS011;1475;51.454;7.150;2022-07-09T05:42:09;8.48;;;6.35;;
2930;SDS011;1475;51.454;7.150;2022-07-09T05:44:35;6.97;;;5.40;;
2930;SDS011;1475;51.454;7.150;2022-07-09T05:47:02;8.15;;;5.55;;
2930;SDS011;1475;51.454;7.150;2022-07-09T05:49:29;8.32;;;6.30;;
2930;SDS011;1475;51.454;7.150;2022-07-09T05:51:56;7.60;;;5.45;;
2930;SDS011;1475;51.454;7.150;2022-07-09T05:54:23;5.75;;;5.10;;
2930;SDS011;1475;51.454;7.150;2022-07-09T05:56:51;8.43;;;5.75;;
2930;SDS011;1475;51.454;7.150;2022-07-09T05:59:18;7.38;;;5.80;;
2930;SDS011;1475;51.454;7.150;2022-07-09T06:01:45;6.90;;;5.45;;
2930;SDS011;1475;51.454;7.150;2022-07-09T06:04:12;8.13;;;5.20;;
2930;SDS011;1475;51.454;7.150;2022-07-09T06:06:38;9.00;;;5.60;;
2930;SDS011;1475;51.454;7.150;2022-07-09T06:09:05;8.25;;;5.72;;
2930;SDS011;1475;51.454;7.150;2022-07-09T06:11:32;8.75;;;5.47;;
2930;SDS011;1475;51.454;7.150;2022-07-09T06:14:01;7.82;;;5.20;;
2930;SDS011;1475;51.454;7.150;2022-07-09T06:16:28;8.10;;;5.50;;
2930;SDS011;1475;51.454;7.150;2022-07-09T06:18:54;8.07;;;5.00;;
2930;SDS011;1475;51.454;7.150;2022-07-09T06:21:21;6.63;;;4.77;;
2930;SDS011;1475;51.454;7.150;2022-07-09T06:23:48;8.30;;;5.00;;
2930;SDS011;1475;51.454;7.150;2022-07-09T06:26:15;6.45;;;4.53;;
2930;SDS011;1475;51.454;7.150;2022-07-09T06:28:42;7.03;;;4.70;;
2930;SDS011;1475;51.454;7.150;2022-07-09T06:31:10;7.38;;;5.50;;
2930;SDS011;1475;51.454;7.150;2022-07-09T06:33:37;6.03;;;4.90;;
2930;SDS011;1475;51.454;7.150;2022-07-09T06:36:04;5.72;;;4.60;;
2930;SDS011;1475;51.454;7.150;2022-07-09T06:38:31;7.43;;;4.80;;
2930;SDS011;1475;51.454;7.150;2022-07-09T06:41:18;6.45;;;4.63;;
2930;SDS011;1475;51.454;7.150;2022-07-09T06:43:45;8.30;;;5.03;;
2930;SDS011;1475;51.454;7.150;2022-07-09T06:46:13;7.07;;;4.90;;
2930;SDS011;1475;51.454;7.150;2022-07-09T06:48:40;8.60;;;5.20;;
2930;SDS011;1475;51.454;7.150;2022-07-09T06:51:07;6.35;;;4.80;;
2930;SDS011;1475;51.454;7.150;2022-07-09T06:53:34;8.40;;;5.70;;
2930;SDS011;1475;51.454;7.150;2022-07-09T06:56:01;7.10;;;4.40;;
2930;SDS011;1475;51.454;7.150;2022-07-09T06:58:27;6.93;;;4.82;;
2930;SDS011;1475;51.454;7.150;2022-07-09T07:00:54;7.20;;;4.55;;
2930;SDS011;1475;51.454;7.150;2022-07-09T07:03:23;7.20;;;4.70;;
2930;SDS011;1475;51.454;7.150;2022-07-09T07:05:49;6.43;;;4.60;;
2930;SDS011;1475;51.454;7.150;2022-07-09T07:08:16;7.30;;;4.43;;
2930;SDS011;1475;51.454;7.150;2022-07-09T07:10:44;7.30;;;4.20;;
2930;SDS011;1475;51.454;7.150;2022-07-09T07:13:10;7.10;;;4.65;;
2930;SDS011;1475;51.454;7.150;2022-07-09T07:15:37;7.13;;;4.10;;
2930;SDS011;1475;51.454;7.150;2022-07-09T07:18:04;7.75;;;4.85;;
2930;SDS011;1475;51.454;7.150;2022-07-09T07:20:32;10.60;;;5.18;;
2930;SDS011;1475;51.454;7.150;2022-07-09T07:22:59;7.45;;;4.90;;
2930;SDS011;1475;51.454;7.150;2022-07-09T07:25:26;7.57;;;4.50;;
2930;SDS011;1475;51.454;7.150;2022-07-09T07:27:53;6.93;;;4.85;;
2930;SDS011;1475;51.454;7.150;2022-07-09T07:30:20;7.32;;;5.03;;
2930;SDS011;1475;51.454;7.150;2022-07-09T07:32:46;7.78;;;4.85;;
2930;SDS011;1475;51.454;7.150;2022-07-09T07:35:13;6.80;;;4.50;;
2930;SDS011;1475;51.454;7.150;2022-07-09T07:37:41;6.27;;;4.03;;
2930;SDS011;1475;51.454;7.150;2022-07-09T07:40:09;11.10;;;5.00;;
2930;SDS011;1475;51.454;7.150;2022-07-09T07:42:37;10.43;;;4.75;;
2930;SDS011;1475;51.454;7.150;2022-07-09T07:45:04;7.47;;;4.70;;
2930;SDS011;1475;51.454;7.150;2022-07-09T07:47:32;7.25;;;5.20;;
2930;SDS011;1475;51.454;7.150;2022-07-09T07:49:58;7.00;;;4.20;;
2930;SDS011;1475;51.454;7.150;2022-07-09T07:52:26;8.32;;;5.53;;
2930;SDS011;1475;51.454;7.150;2022-07-09T07:54:54;9.57;;;5.15;;
2930;SDS011;1475;51.454;7.150;2022-07-09T07:57:21;7.93;;;4.43;;
2930;SDS011;1475;51.454;7.150;2022-07-09T07:59:48;9.07;;;4.60;;
2930;SDS011;1475;51.454;7.150;2022-07-09T08:02:15;7.87;;;5.03;;
2930;SDS011;1475;51.454;7.150;2022-07-09T08:04:41;9.75;;;5.40;;
2930;SDS011;1475;51.454;7.150;2022-07-09T08:07:08;8.27;;;4.35;;
2930;SDS011;1475;51.454;7.150;2022-07-09T08:09:35;7.47;;;4.50;;
2930;SDS011;1475;51.454;7.150;2022-07-09T08:12:04;8.57;;;4.07;;
2930;SDS011;1475;51.454;7.150;2022-07-09T08:14:32;4.63;;;3.10;;
2930;SDS011;1475;51.454;7.150;2022-07-09T08:16:59;6.88;;;3.35;;
2930;SDS011;1475;51.454;7.150;2022-07-09T08:19:25;7.05;;;3.50;;
2930;SDS011;1475;51.454;7.150;2022-07-09T08:21:52;6.10;;;3.92;;
2930;SDS011;1475;51.454;7.150;2022-07-09T08:24:19;5.72;;;4.13;;
2930;SDS011;1475;51.454;7.150;2022-07-09T08:26:46;7.40;;;3.90;;
2930;SDS011;1475;51.454;7.150;2022-07-09T08:29:14;7.07;;;3.90;;
2930;SDS011;1475;51.454;7.150;2022-07-09T08:31:41;7.30;;;3.60;;
2930;SDS011;1475;51.454;7.150;2022-07-09T08:34:08;7.88;;;3.78;;
2930;SDS011;1475;51.454;7.150;2022-07-09T08:36:34;7.88;;;3.40;;
2930;SDS011;1475;51.454;7.150;2022-07-09T08:39:01;7.57;;;4.03;;
2930;SDS011;1475;51.454;7.150;2022-07-09T08:41:28;6.50;;;3.80;;
2930;SDS011;1475;51.454;7.150;2022-07-09T08:43:55;6.20;;;3.78;;
2930;SDS011;1475;51.454;7.150;2022-07-09T08:46:23;4.60;;;2.80;;
2930;SDS011;1475;51.454;7.150;2022-07-09T08:48:50;8.15;;;4.00;;
2930;SDS011;1475;51.454;7.150;2022-07-09T08:51:19;5.67;;;2.80;;
2930;SDS011;1475;51.454;7.150;2022-07-09T08:53:46;6.33;;;2.87;;
2930;SDS011;1475;51.454;7.150;2022-07-09T08:56:14;5.72;;;2.70;;
2930;SDS011;1475;51.454;7.150;2022-07-09T08:58:41;5.13;;;3.10;;
2930;SDS011;1475;51.454;7.150;2022-07-09T09:01:08;6.10;;;3.00;;
2930;SDS011;1475;51.454;7.150;2022-07-09T09:03:42;5.03;;;3.03;;
2930;SDS011;1475;51.454;7.150;2022-07-09T09:06:10;4.18;;;2.90;;
2930;SDS011;1475;51.454;7.150;2022-07-09T09:08:38;5.20;;;2.67;;
2930;SDS011;1475;51.454;7.150;2022-07-09T09:11:07;3.47;;;2.10;;
2930;SDS011;1475;51.454;7.150;2022-07-09T09:13:39;3.63;;;1.80;;
2930;SDS011;1475;51.454;7.150;2022-07-09T09:16:08;4.00;;;2.10;;
2930;SDS011;1475;51.454;7.150;2022-07-09T09:18:36;4.35;;;2.30;;
2930;SDS011;1475;51.454;7.150;2022-07-09T09:21:07;4.40;;;1.73;;
2930;SDS011;1475;51.454;7.150;2022-07-09T09:23:38;4.10;;;1.92;;
2930;SDS011;1475;51.454;7.150;2022-07-09T09:26:09;3.22;;;1.90;;
2930;SDS011;1475;51.454;7.150;2022-07-09T09:28:49;4.10;;;2.20;;
2930;SDS011;1475;51.454;7.150;2022-07-09T09:31:18;3.53;;;2.03;;
2930;SDS011;1475;51.454;7.150;2022-07-09T09:33:46;3.92;;;1.80;;
2930;SDS011;1475;51.454;7.150;2022-07-09T09:36:27;3.27;;;1.63;;
2930;SDS011;1475;51.454;7.150;2022-07-09T09:39:13;4.53;;;2.17;;
2930;SDS011;1475;51.454;7.150;2022-07-09T09:41:42;4.95;;;2.40;;
2930;SDS011;1475;51.454;7.150;2022-07-09T09:44:10;6.75;;;3.17;;
2930;SDS011;1475;51.454;7.150;2022-07-09T09:46:39;6.57;;;3.67;;
2930;SDS011;1475;51.454;7.150;2022-07-09T09:49:08;10.00;;;4.70;;
2930;SDS011;1475;51.454;7.150;2022-07-09T09:51:37;7.00;;;3.90;;
2930;SDS011;1475;51.454;7.150;2022-07-09T09:54:14;5.22;;;2.83;;
2930;SDS011;1475;51.454;7.150;2022-07-09T09:56:41;4.57;;;2.78;;
2930;SDS011;1475;51.454;7.150;2022-07-09T09:59:09;5.70;;;3.08;;
2930;SDS011;1475;51.454;7.150;2022-07-09T10:01:36;7.20;;;2.88;;
2930;SDS011;1475;51.454;7.150;2022-07-09T10:04:04;5.43;;;3.00;;
2930;SDS011;1475;51.454;7.150;2022-07-09T10:06:31;6.00;;;3.15;;
2930;SDS011;1475;51.454;7.150;2022-07-09T10:09:00;6.50;;;3.20;;
2930;SDS011;1475;51.454;7.150;2022-07-09T10:11:37;5.82;;;2.90;;
2930;SDS011;1475;51.454;7.150;2022-07-09T10:14:04;5.70;;;3.20;;
2930;SDS011;1475;51.454;7.150;2022-07-09T10:16:37;4.20;;;2.53;;
2930;SDS011;1475;51.454;7.150;2022-07-09T10:19:05;8.75;;;3.45;;
2930;SDS011;1475;51.454;7.150;2022-07-09T10:21:34;5.28;;;3.08;;
2930;SDS011;1475;51.454;7.150;2022-07-09T10:24:04;6.35;;;2.70;;
2930;SDS011;1475;51.454;7.150;2022-07-09T10:26:36;5.07;;;2.80;;
2930;SDS011;1475;51.454;7.150;2022-07-09T10:29:21;4.82;;;2.50;;
2930;SDS011;1475;51.454;7.150;2022-07-09T10:31:49;4.70;;;2.47;;
2930;SDS011;1475;51.454;7.150;2022-07-09T10:34:21;5.63;;;2.90;;
2930;SDS011;1475;51.454;7.150;2022-07-09T10:37:06;6.20;;;2.90;;
2930;SDS011;1475;51.454;7.150;2022-07-09T10:39:34;4.40;;;2.25;;
2930;SDS011;1475;51.454;7.150;2022-07-09T10:42:01;4.13;;;2.40;;
2930;SDS011;1475;51.454;7.150;2022-07-09T10:44:33;4.10;;;2.10;;
2930;SDS011;1475;51.454;7.150;2022-07-09T10:47:01;3.00;;;1.98;;
2930;SDS011;1475;51.454;7.150;2022-07-09T10:49:29;4.70;;;1.80;;
2930;SDS011;1475;51.454;7.150;2022-07-09T10:51:56;3.30;;;1.60;;
2930;SDS011;1475;51.454;7.150;2022-07-09T10:54:24;2.92;;;1.45;;
2930;SDS011;1475;51.454;7.150;2022-07-09T10:56:52;2.95;;;1.70;;
2930;SDS011;1475;51.454;7.150;2022-07-09T10:59:19;2.50;;;1.60;;
2930;SDS011;1475;51.454;7.150;2022-07-09T11:01:47;2.55;;;1.40;;
2930;SDS011;1475;51.454;7.150;2022-07-09T11:04:24;2.97;;;1.52;;
2930;SDS011;1475;51.454;7.150;2022-07-09T11:06:52;4.13;;;1.70;;
2930;SDS011;1475;51.454;7.150;2022-07-09T11:09:19;2.60;;;1.40;;
2930;SDS011;1475;51.454;7.150;2022-07-09T11:11:46;4.57;;;2.20;;
2930;SDS011;1475;51.454;7.150;2022-07-09T11:14:14;2.97;;;1.50;;
2930;SDS011;1475;51.454;7.150;2022-07-09T11:16:41;3.47;;;2.00;;
2930;SDS011;1475;51.454;7.150;2022-07-09T11:19:19;3.20;;;2.10;;
2930;SDS011;1475;51.454;7.150;2022-07-09T11:21:46;2.90;;;1.90;;
2930;SDS011;1475;51.454;7.150;2022-07-09T11:24:14;3.78;;;1.80;;
2930;SDS011;1475;51.454;7.150;2022-07-09T11:26:41;3.38;;;1.60;;
2930;SDS011;1475;51.454;7.150;2022-07-09T11:29:08;4.30;;;2.00;;
2930;SDS011;1475;51.454;7.150;2022-07-09T11:31:37;3.33;;;1.53;;
2930;SDS011;1475;51.454;7.150;2022-07-09T11:34:12;2.57;;;1.47;;
2930;SDS011;1475;51.454;7.150;2022-07-09T11:36:39;2.60;;;1.30;;
2930;SDS011;1475;51.454;7.150;2022-07-09T11:39:07;2.80;;;1.20;;
2930;SDS011;1475;51.454;7.150;2022-07-09T11:41:40;3.45;;;1.95;;
2930;SDS011;1475;51.454;7.150;2022-07-09T11:44:08;3.42;;;1.60;;
2930;SDS011;1475;51.454;7.150;2022-07-09T11:46:38;3.00;;;1.50;;
2930;SDS011;1475;51.454;7.150;2022-07-09T11:49:13;3.20;;;1.50;;
2930;SDS011;1475;51.454;7.150;2022-07-09T11:51:40;3.25;;;1.70;;
2930;SDS011;1475;51.454;7.150;2022-07-09T11:54:08;2.72;;;1.75;;
2930;SDS011;1475;51.454;7.150;2022-07-09T11:56:41;2.60;;;1.77;;
2930;SDS011;1475;51.454;7.150;2022-07-09T11:59:10;2.90;;;2.00;;
2930;SDS011;1475;51.454;7.150;2022-07-09T12:01:38;2.85;;;1.63;;
2930;SDS011;1475;51.454;7.150;2022-07-09T12:04:05;2.70;;;1.80;;
2930;SDS011;1475;51.454;7.150;2022-07-09T12:06:32;2.90;;;1.80;;
2930;SDS011;1475;51.454;7.150;2022-07-09T12:08:59;3.00;;;2.30;;
2930;SDS011;1475;51.454;7.150;2022-07-09T12:11:27;3.75;;;2.55;;
2930;SDS011;1475;51.454;7.150;2022-07-09T12:13:55;5.00;;;3.40;;
2930;SDS011;1475;51.454;7.150;2022-07-09T12:16:22;3.35;;;2.40;;
2930;SDS011;1475;51.454;7.150;2022-07-09T12:18:50;3.85;;;2.45;;
2930;SDS011;1475;51.454;7.150;2022-07-09T12:21:18;2.85;;;2.30;;
2930;SDS011;1475;51.454;7.150;2022-07-09T12:23:45;3.97;;;2.38;;
2930;SDS011;1475;51.454;7.150;2022-07-09T12:26:12;6.15;;;3.67;;
2930;SDS011;1475;51.454;7.150;2022-07-09T12:28:39;8.27;;;5.80;;
2930;SDS011;1475;51.454;7.150;2022-07-09T12:31:06;9.77;;;8.18;;
2930;SDS011;1475;51.454;7.150;2022-07-09T12:33:36;13.93;;;10.93;;
2930;SDS011;1475;51.454;7.150;2022-07-09T12:36:04;14.82;;;11.75;;
2930;SDS011;1475;51.454;7.150;2022-07-09T12:38:31;14.00;;;12.40;;
2930;SDS011;1475;51.454;7.150;2022-07-09T12:40:58;12.57;;;11.27;;
2930;SDS011;1475;51.454;7.150;2022-07-09T12:43:25;14.65;;;13.05;;
2930;SDS011;1475;51.454;7.150;2022-07-09T12:45:51;15.53;;;13.93;;
2930;SDS011;1475;51.454;7.150;2022-07-09T12:48:18;15.00;;;13.60;;
2930;SDS011;1475;51.454;7.150;2022-07-09T12:50:45;16.33;;;14.93;;
2930;SDS011;1475;51.454;7.150;2022-07-09T12:53:16;16.05;;;14.45;;
2930;SDS011;1475;51.454;7.150;2022-07-09T12:55:43;16.08;;;13.95;;
2930;SDS011;1475;51.454;7.150;2022-07-09T12:58:11;16.15;;;14.40;;
2930;SDS011;1475;51.454;7.150;2022-07-09T13:00:38;16.38;;;13.63;;
2930;SDS011;1475;51.454;7.150;2022-07-09T13:03:05;15.13;;;13.65;;
2930;SDS011;1475;51.454;7.150;2022-07-09T13:05:32;13.70;;;12.40;;
2930;SDS011;1475;51.454;7.150;2022-07-09T13:07:59;13.80;;;12.40;;
2930;SDS011;1475;51.454;7.150;2022-07-09T13:10:27;11.00;;;9.90;;
2930;SDS011;1475;51.454;7.150;2022-07-09T13:12:55;13.00;;;11.80;;
2930;SDS011;1475;51.454;7.150;2022-07-09T13:15:22;13.43;;;12.23;;
2930;SDS011;1475;51.454;7.150;2022-07-09T13:17:49;14.90;;;13.30;;
2930;SDS011;1475;51.454;7.150;2022-07-09T13:20:16;12.75;;;11.45;;
2930;SDS011;1475;51.454;7.150;2022-07-09T13:22:43;13.90;;;12.50;;
2930;SDS011;1475;51.454;7.150;2022-07-09T13:25:10;14.45;;;13.15;;
2930;SDS011;1475;51.454;7.150;2022-07-09T13:27:38;13.27;;;11.88;;
2930;SDS011;1475;51.454;7.150;2022-07-09T13:30:05;13.53;;;12.33;;
2930;SDS011;1475;51.454;7.150;2022-07-09T13:32:33;15.85;;;14.25;;
2930;SDS011;1475;51.454;7.150;2022-07-09T13:35:00;13.77;;;12.57;;
2930;SDS011;1475;51.454;7.150;2022-07-09T13:37:27;11.87;;;10.73;;
2930;SDS011;1475;51.454;7.150;2022-07-09T13:39:56;13.40;;;12.10;;
2930;SDS011;1475;51.454;7.150;2022-07-09T13:42:23;9.77;;;8.77;;
2930;SDS011;1475;51.454;7.150;2022-07-09T13:44:51;15.30;;;7.97;;
2930;SDS011;1475;51.454;7.150;2022-07-09T13:47:18;7.68;;;5.95;;
2930;SDS011;1475;51.454;7.150;2022-07-09T13:49:44;7.15;;;5.50;;
